Main page
METAR-TAF:

METAR-TAF

Airports :

Curaçao International Airport

Curaçao, Netherlands Antilles

latitude: 12-12N, longitude: 068-58W, elevation: 9 m

Current weather observation

The report was made 1 hour and 4 minutes ago, at 08:00 UTC
Wind 14 kt from the East
Temperature 28°C
Humidity 79%
Pressure 1010 hPa
Visibility 10 km or more
Broken clouds at a height of 2300 ft

METAR: TNCC 210800Z AUTO 10014KT 9999 BKN023 28/24 Q1010

Time: 05:04 (09:04 UTC)

Forecast

The report was made 5 hours and 4 minutes ago, at 04:00 UTC
Forecast valid from 21 at 06 UTC to 22 at 06 UTC
Wind 15 kt from the East/Southeast with gusts up to 27 kt
Visibility 10 km or more
Scattered clouds at a height of 1800 ft
Temporary
from 21 at 06 UTC to 21 at 14 UTC
Broken clouds at a height of 1500 ft

TAF: TNCC 210400Z 2106/2206 11015G27KT 9999 SCT018 TEMPO 2106/2114 BKN015

Weather observations and forecasts of more than 4000 airports (METAR and TAF reports).

The available stations are represented by yellow and red dots on the map.

Hover mouse over dot to see the name of the station.

Then click to see weather observations and forecasts.

To change the map : click on the green buttons with a black cross to zoom in, on the green button with a dash to zoom out, or on the green arrows for adjacent maps.


METAR-TAF: